Time;durP1;ratioP1;P1;durP2;ratioP2;P2;SDS_P1;SDS_P2;PMS_P1;PMS_P2;Temp;Humidity;BMP_temperature;BMP_pressure;BME280_temperature;BME280_humidity;BME280_pressure;Samples;Min_cycle;Max_cycle;Signal;HPM_P1;HPM_P2
2023/04/10 00:00:08;;;;;;;43.97;35.22;;;8.00;99.90;;;;;;5017330;28;20042;-54
2023/04/10 00:02:36;;;;;;;45.65;35.40;;;7.90;99.90;;;;;;5009225;28;20400;-52
2023/04/10 00:05:02;;;;;;;45.38;35.10;;;7.80;99.90;;;;;;5009421;28;20464;-59
2023/04/10 00:07:27;;;;;;;44.67;34.63;;;8.10;99.90;;;;;;5010228;28;20046;-59
2023/04/10 00:09:53;;;;;;;47.97;35.42;;;7.80;99.90;;;;;;5009821;28;20164;-55
2023/04/10 00:12:19;;;;;;;46.25;35.95;;;7.80;99.90;;;;;;5009583;28;20123;-53
2023/04/10 00:14:45;;;;;;;44.90;36.17;;;7.90;99.90;;;;;;5009780;28;20050;-55
2023/04/10 00:17:10;;;;;;;47.22;36.65;;;8.10;99.90;;;;;;5009784;28;20511;-55
2023/04/10 00:19:36;;;;;;;44.63;36.60;;;7.60;99.90;;;;;;5008737;28;20081;-57
2023/04/10 00:22:02;;;;;;;47.55;36.47;;;7.60;99.90;;;;;;5009623;28;20069;-59
2023/04/10 00:24:27;;;;;;;47.00;37.85;;;7.60;99.90;;;;;;5009928;28;20061;-59
2023/04/10 00:26:53;;;;;;;49.60;38.03;;;7.50;99.90;;;;;;5009437;28;20082;-57
2023/04/10 00:29:18;;;;;;;48.00;37.72;;;7.40;99.90;;;;;;5009048;28;20064;-55
2023/04/10 00:31:44;;;;;;;49.28;38.10;;;7.80;99.90;;;;;;5009569;28;20572;-58
2023/04/10 00:34:10;;;;;;;48.95;38.38;;;7.40;99.90;;;;;;5009214;28;20042;-56
2023/04/10 00:36:36;;;;;;;51.05;38.47;;;7.30;99.90;;;;;;5008918;28;20459;-59
2023/04/10 00:39:02;;;;;;;46.33;37.45;;;7.30;99.90;;;;;;5009126;28;20041;-48
2023/04/10 00:41:28;;;;;;;50.45;38.65;;;7.40;99.90;;;;;;5008418;28;20053;-57
2023/04/10 00:43:57;;;;;;;55.13;39.15;;;7.30;99.90;;;;;;5008196;28;20108;-54
2023/04/10 00:46:23;;;;;;;49.55;38.35;;;7.60;99.90;;;;;;5008971;28;20443;-59
2023/04/10 00:48:55;;;;;;;50.75;38.78;;;7.30;99.90;;;;;;5008053;28;20132;-57
2023/04/10 00:51:21;;;;;;;48.67;38.15;;;7.40;99.90;;;;;;5008711;28;20052;-48
2023/04/10 00:53:52;;;;;;;51.00;38.85;;;7.30;99.90;;;;;;5008996;28;20133;-54
2023/04/10 00:56:19;;;;;;;51.60;40.40;;;7.30;99.90;;;;;;5009016;28;20125;-55
2023/04/10 00:58:45;;;;;;;49.70;39.00;;;7.20;99.90;;;;;;5019938;28;20046;-56
2023/04/10 01:01:11;;;;;;;53.22;40.25;;;7.20;99.90;;;;;;5007104;28;20041;-55
2023/04/10 01:03:38;;;;;;;49.38;39.58;;;7.20;99.90;;;;;;5006977;28;20212;-57
2023/04/10 01:06:31;;;;;;;52.85;40.42;;;7.20;99.90;;;;;;5008625;28;20107;-58
2023/04/10 01:09:13;;;;;;;53.05;40.92;;;7.10;99.90;;;;;;5008542;28;20068;-59
2023/04/10 01:11:47;;;;;;;51.88;41.20;;;7.10;99.90;;;;;;5008386;28;20053;-56
2023/04/10 01:14:26;;;;;;;53.20;40.10;;;7.00;99.90;;;;;;5008308;28;20057;-59
2023/04/10 01:17:31;;;;;;;54.40;41.05;;;7.00;99.90;;;;;;5008429;28;20119;-57
2023/04/10 01:20:22;;;;;;;53.85;41.92;;;7.00;99.90;;;;;;5008059;28;20149;-54
2023/04/10 01:23:25;;;;;;;52.03;41.38;;;6.90;99.90;;;;;;5007974;28;20056;-54
2023/04/10 01:26:03;;;;;;;56.17;41.33;;;6.90;99.90;;;;;;5007980;28;20053;-53
2023/04/10 01:28:52;;;;;;;54.42;41.38;;;6.90;99.90;;;;;;5007664;28;20112;-57
2023/04/10 01:31:25;;;;;;;53.83;41.58;;;6.80;99.90;;;;;;5008237;28;20436;-57
2023/04/10 01:33:58;;;;;;;55.88;41.50;;;6.80;99.90;;;;;;5007160;28;20519;-56
2023/04/10 01:36:27;;;;;;;52.42;40.70;;;6.70;99.90;;;;;;5008121;28;20053;-57
2023/04/10 01:38:56;;;;;;;53.25;41.53;;;6.70;99.90;;;;;;5007248;28;20559;-58
2023/04/10 01:41:22;;;;;;;55.15;42.10;;;6.70;99.90;;;;;;5007962;28;20516;-59
2023/04/10 01:43:51;;;;;;;53.45;41.90;;;6.70;99.90;;;;;;4990367;28;20096;-56
2023/04/10 01:46:18;;;;;;;50.97;39.53;;;6.70;99.90;;;;;;5008100;28;20038;-59
2023/04/10 01:48:46;;;;;;;52.80;40.30;;;6.70;99.90;;;;;;5005190;28;20045;-56
2023/04/10 01:51:13;;;;;;;53.90;41.40;;;6.70;99.90;;;;;;5008233;28;20073;-57
2023/04/10 01:53:40;;;;;;;53.50;40.67;;;6.60;99.90;;;;;;5008243;28;20049;-59
2023/04/10 01:56:07;;;;;;;54.63;41.00;;;6.60;99.90;;;;;;5007548;28;20045;-49
2023/04/10 01:58:34;;;;;;;52.92;40.97;;;6.60;99.90;;;;;;5013762;28;20145;-58
2023/04/10 02:01:00;;;;;;;51.83;40.70;;;6.60;99.90;;;;;;5007392;28;20042;-53
2023/04/10 02:03:26;;;;;;;52.47;39.80;;;6.60;99.90;;;;;;5006589;28;20113;-57
2023/04/10 02:06:10;;;;;;;52.08;39.67;;;6.90;99.90;;;;;;5007664;28;20124;-49
2023/04/10 02:08:45;;;;;;;52.45;39.92;;;6.50;99.90;;;;;;5008181;28;20085;-57
2023/04/10 02:11:16;;;;;;;;;;;6.50;99.90;;;;;;5008214;28;20668;-58
2023/04/10 02:13:42;;;;;;;54.58;41.55;;;6.50;99.90;;;;;;5007682;28;19948;-56
2023/04/10 02:16:10;;;;;;;52.10;41.15;;;6.50;99.90;;;;;;5007029;28;20057;-55
2023/04/10 02:18:37;;;;;;;53.85;41.78;;;6.50;99.90;;;;;;5007052;28;20105;-57
2023/04/10 02:21:03;;;;;;;52.75;41.00;;;6.40;99.90;;;;;;5007555;28;20053;-58
2023/04/10 02:23:29;;;;;;;50.47;40.03;;;6.50;99.90;;;;;;5007460;28;20339;-51
2023/04/10 02:25:56;;;;;;;53.72;40.80;;;6.50;99.90;;;;;;5007051;28;20041;-59
2023/04/10 02:28:21;;;;;;;52.05;38.10;;;6.80;99.90;;;;;;5007075;28;20061;-59
2023/04/10 02:30:47;;;;;;;56.22;40.15;;;6.40;99.90;;;;;;5007159;28;20049;-59
2023/04/10 02:33:13;;;;;;;53.78;40.15;;;6.40;99.90;;;;;;5006013;28;20042;-58
2023/04/10 02:35:38;;;;;;;50.90;40.20;;;6.80;99.90;;;;;;5007513;28;20053;-47
2023/04/10 02:38:04;;;;;;;52.13;39.10;;;6.40;99.90;;;;;;5007409;28;20056;-58
2023/04/10 02:40:29;;;;;;;50.78;37.80;;;6.30;99.90;;;;;;5006773;28;20046;-58
2023/04/10 02:42:55;;;;;;;46.70;37.67;;;6.40;99.90;;;;;;5006606;28;20133;-49
2023/04/10 02:45:21;;;;;;;46.85;37.42;;;6.60;99.90;;;;;;5007264;28;20515;-57
2023/04/10 02:47:47;;;;;;;48.13;37.40;;;6.50;99.90;;;;;;5006250;28;20053;-57
2023/04/10 02:50:12;;;;;;;50.85;37.65;;;6.40;99.90;;;;;;5006946;28;20041;-45
2023/04/10 02:52:38;;;;;;;50.03;38.00;;;6.30;99.90;;;;;;5022358;28;20489;-55
2023/04/10 02:55:04;;;;;;;47.97;37.30;;;6.30;99.90;;;;;;5007155;28;20045;-59
2023/04/10 02:57:30;;;;;;;50.60;39.05;;;6.30;99.90;;;;;;5009811;28;20196;-57
2023/04/10 02:59:56;;;;;;;52.20;37.78;;;6.40;99.90;;;;;;5026849;28;20080;-59
2023/04/10 03:02:22;;;;;;;51.88;38.70;;;6.50;99.90;;;;;;5025999;28;20141;-58
2023/04/10 03:04:48;;;;;;;50.78;38.05;;;6.30;99.90;;;;;;5026539;28;20563;-59
2023/04/10 03:07:14;;;;;;;49.83;37.40;;;6.20;99.90;;;;;;5026700;28;20052;-50
2023/04/10 03:09:39;;;;;;;49.38;37.80;;;6.30;99.90;;;;;;5030524;28;20041;-57
2023/04/10 03:12:05;;;;;;;50.33;38.17;;;6.30;99.90;;;;;;5030711;28;20045;-58
2023/04/10 03:14:31;;;;;;;51.28;37.92;;;6.20;99.90;;;;;;5029895;28;20049;-51
2023/04/10 03:16:56;;;;;;;49.95;37.28;;;6.20;99.90;;;;;;5029840;28;20099;-59
2023/04/10 03:19:22;;;;;;;49.13;38.65;;;6.20;99.90;;;;;;5030715;28;20044;-57
2023/04/10 03:21:48;;;;;;;48.83;38.08;;;6.30;99.90;;;;;;5029670;28;20090;-56
2023/04/10 03:24:13;;;;;;;47.92;37.53;;;6.20;99.90;;;;;;5029956;28;20133;-57
2023/04/10 03:26:39;;;;;;;48.38;37.42;;;6.20;99.90;;;;;;5030771;28;20425;-57
2023/04/10 03:29:05;;;;;;;52.08;37.05;;;6.20;99.90;;;;;;5030327;28;20049;-53
2023/04/10 03:31:30;;;;;;;49.10;38.13;;;6.40;99.90;;;;;;5029756;28;20052;-56
2023/04/10 03:33:56;;;;;;;49.70;38.53;;;6.10;99.90;;;;;;5027977;28;20091;-49
2023/04/10 03:36:22;;;;;;;48.40;37.47;;;6.20;99.90;;;;;;5030216;28;20041;-57
2023/04/10 03:38:47;;;;;;;48.28;38.20;;;6.10;99.90;;;;;;5030195;28;20045;-57
2023/04/10 03:41:13;;;;;;;50.92;37.63;;;6.10;99.90;;;;;;5029580;28;20554;-46
2023/04/10 03:43:39;;;;;;;48.50;37.40;;;6.00;99.90;;;;;;5030269;28;20080;-56
2023/04/10 03:46:05;;;;;;;45.42;36.15;;;6.10;99.90;;;;;;5029521;28;20041;-56
2023/04/10 03:48:31;;;;;;;49.13;36.92;;;6.10;99.90;;;;;;5029394;28;20042;-57
2023/04/10 03:50:57;;;;;;;48.67;36.85;;;6.10;99.90;;;;;;5029892;28;20467;-59
2023/04/10 03:53:23;;;;;;;50.53;36.97;;;6.00;99.90;;;;;;5029871;28;20123;-55
2023/04/10 03:55:48;;;;;;;46.88;36.75;;;6.00;99.90;;;;;;5029063;28;20073;-59
2023/04/10 03:58:14;;;;;;;49.88;37.10;;;6.00;99.90;;;;;;5024265;28;20150;-49
2023/04/10 04:00:40;;;;;;;48.75;38.28;;;6.00;99.90;;;;;;5012980;28;20042;-59
2023/04/10 04:03:05;;;;;;;48.45;35.33;;;6.60;99.90;;;;;;5009083;28;20108;-59
2023/04/10 04:05:31;;;;;;;47.95;36.38;;;6.00;99.90;;;;;;5009916;28;20046;-50
2023/04/10 04:07:57;;;;;;;47.75;36.17;;;6.30;99.90;;;;;;5010189;28;20045;-58
2023/04/10 04:10:23;;;;;;;49.13;37.17;;;6.10;99.90;;;;;;5009704;28;20100;-58
2023/04/10 04:12:49;;;;;;;48.95;36.08;;;6.30;99.90;;;;;;5008501;28;20065;-55
2023/04/10 04:15:14;;;;;;;48.47;36.70;;;6.00;99.90;;;;;;5009963;28;20661;-48
2023/04/10 04:17:41;;;;;;;49.50;38.38;;;6.10;99.90;;;;;;5009423;28;20092;-55
2023/04/10 04:20:07;;;;;;;45.60;36.28;;;6.00;99.90;;;;;;5008699;28;20076;-59
2023/04/10 04:22:33;;;;;;;48.28;35.75;;;6.00;99.90;;;;;;5009473;28;20100;-57
2023/04/10 04:24:59;;;;;;;49.38;36.28;;;6.00;99.90;;;;;;5008356;28;20034;-56
2023/04/10 04:27:24;;;;;;;46.20;35.40;;;6.00;99.90;;;;;;5008947;28;20050;-53
2023/04/10 04:29:50;;;;;;;47.17;36.20;;;6.10;99.90;;;;;;5009062;28;20116;-57
2023/04/10 04:32:16;;;;;;;46.47;36.10;;;6.10;99.90;;;;;;5008652;28;20505;-50
2023/04/10 04:34:41;;;;;;;48.97;36.13;;;6.10;99.90;;;;;;5009473;28;20092;-53
2023/04/10 04:37:07;;;;;;;47.53;36.47;;;6.10;99.90;;;;;;5007626;28;20057;-57
2023/04/10 04:39:33;;;;;;;48.20;36.22;;;6.10;99.90;;;;;;5008959;28;20046;-59
2023/04/10 04:42:00;;;;;;;46.50;34.50;;;6.20;99.90;;;;;;5009190;28;20046;-56
2023/04/10 04:44:25;;;;;;;45.53;34.88;;;6.30;99.90;;;;;;5008424;28;20057;-59
2023/04/10 04:46:51;;;;;;;46.92;35.47;;;6.30;99.90;;;;;;5008193;28;20410;-53
2023/04/10 04:49:17;;;;;;;46.95;35.53;;;6.20;99.90;;;;;;5008897;28;20214;-56
2023/04/10 04:51:42;;;;;;;49.20;36.72;;;6.30;99.90;;;;;;5008681;28;20046;-48
2023/04/10 04:54:08;;;;;;;46.22;35.53;;;6.30;99.90;;;;;;5008834;28;20530;-59
2023/04/10 04:56:33;;;;;;;48.95;35.45;;;6.30;99.90;;;;;;4991754;28;20061;-56
2023/04/10 04:58:59;;;;;;;46.00;34.53;;;6.20;99.90;;;;;;5019559;28;20555;-57
2023/04/10 05:01:25;;;;;;;47.83;36.42;;;6.40;99.90;;;;;;5007639;28;20485;-48
2023/04/10 05:03:50;;;;;;;46.85;35.47;;;6.40;99.90;;;;;;5008213;28;20037;-59
2023/04/10 05:06:17;;;;;;;43.50;33.88;;;6.40;99.90;;;;;;5009221;28;20045;-56
2023/04/10 05:08:43;;;;;;;46.75;34.28;;;6.50;99.90;;;;;;5024283;28;20046;-59
2023/04/10 05:11:09;;;;;;;45.25;33.95;;;6.50;99.90;;;;;;5009043;28;20153;-58
2023/04/10 05:13:34;;;;;;;50.58;36.05;;;7.00;99.90;;;;;;5007186;28;20099;-48
2023/04/10 05:16:00;;;;;;;47.20;34.28;;;6.70;99.90;;;;;;5008459;28;20050;-58
2023/04/10 05:18:26;;;;;;;44.75;34.53;;;6.70;99.90;;;;;;5007623;28;20046;-59
2023/04/10 05:20:52;;;;;;;43.95;33.92;;;6.70;99.90;;;;;;5008468;28;20042;-50
2023/04/10 05:23:17;;;;;;;46.20;35.08;;;6.70;99.90;;;;;;5008798;28;20666;-58
2023/04/10 05:25:43;;;;;;;46.13;33.80;;;6.80;99.90;;;;;;5007921;28;20120;-59
2023/04/10 05:28:09;;;;;;;45.63;34.60;;;6.80;99.90;;;;;;5008129;28;20200;-51
2023/04/10 05:30:34;;;;;;;45.33;33.83;;;6.80;99.90;;;;;;5008340;28;20065;-57
2023/04/10 05:33:00;;;;;;;43.95;32.22;;;7.40;99.90;;;;;;5006155;28;20104;-51
2023/04/10 05:35:26;;;;;;;43.00;33.92;;;7.00;99.90;;;;;;5007547;28;20125;-53
2023/04/10 05:37:51;;;;;;;43.65;33.88;;;7.20;99.90;;;;;;5007942;28;20125;-56
2023/04/10 05:40:17;;;;;;;43.72;33.40;;;7.10;99.90;;;;;;5008465;28;20157;-59
2023/04/10 05:42:42;;;;;;;43.28;33.00;;;7.50;99.90;;;;;;5007591;28;20111;-54
2023/04/10 05:45:09;;;;;;;42.42;32.75;;;7.20;99.90;;;;;;5007920;28;20050;-58
2023/04/10 05:47:34;;;;;;;43.03;34.13;;;7.40;99.90;;;;;;5007124;28;20409;-57
2023/04/10 05:50:00;;;;;;;41.95;32.15;;;7.50;99.90;;;;;;5008177;28;20046;-59
2023/04/10 05:52:25;;;;;;;41.80;32.95;;;7.50;99.90;;;;;;5008101;28;20057;-60
2023/04/10 05:54:51;;;;;;;45.45;33.80;;;7.60;99.90;;;;;;5008090;28;20061;-51
2023/04/10 05:57:17;;;;;;;43.03;34.13;;;7.60;99.90;;;;;;5009117;28;20142;-59
2023/04/10 05:59:42;;;;;;;42.45;33.00;;;7.70;99.90;;;;;;5016151;28;20481;-59
2023/04/10 06:02:08;;;;;;;43.40;34.28;;;7.60;99.90;;;;;;5006636;28;20465;-54
2023/04/10 06:04:34;;;;;;;45.85;33.90;;;8.10;99.90;;;;;;5007338;28;20042;-58
2023/04/10 06:07:00;;;;;;;43.70;35.00;;;7.70;99.90;;;;;;5006930;28;20042;-56
2023/04/10 06:09:25;;;;;;;44.33;34.70;;;8.00;99.90;;;;;;5007492;28;20038;-59
2023/04/10 06:11:52;;;;;;;43.92;33.63;;;7.70;99.90;;;;;;5007937;28;20639;-54
2023/04/10 06:14:19;;;;;;;43.33;33.67;;;7.80;99.90;;;;;;5007610;28;20058;-59
2023/04/10 06:16:44;;;;;;;42.50;33.78;;;7.80;99.90;;;;;;5010036;28;20042;-58
2023/04/10 06:19:10;;;;;;;41.85;32.75;;;7.90;99.90;;;;;;5027338;28;20056;-56
2023/04/10 06:21:36;;;;;;;43.28;33.85;;;8.30;99.90;;;;;;5026902;28;20140;-58
2023/04/10 06:24:02;;;;;;;41.70;33.90;;;8.40;99.90;;;;;;5026702;28;20489;-55
2023/04/10 06:26:27;;;;;;;44.72;34.70;;;8.50;99.90;;;;;;5027162;28;20132;-56
2023/04/10 06:28:53;;;;;;;44.00;34.25;;;8.60;99.90;;;;;;5025421;28;20546;-56
2023/04/10 06:31:22;;;;;;;40.45;31.58;;;8.60;99.90;;;;;;5026042;28;20057;-57
2023/04/10 06:33:49;;;;;;;44.53;33.88;;;8.70;99.90;;;;;;5027488;28;20116;-59
2023/04/10 06:36:15;;;;;;;44.10;32.60;;;8.70;99.90;;;;;;5026570;28;20477;-59
2023/04/10 06:38:41;;;;;;;44.95;33.97;;;8.90;99.90;;;;;;5026441;28;20038;-58
2023/04/10 06:41:06;;;;;;;43.45;33.45;;;9.10;99.90;;;;;;5026804;28;20415;-59
2023/04/10 06:43:36;;;;;;;44.30;34.45;;;9.50;99.90;;;;;;5026413;28;20380;-59
2023/04/10 06:46:03;;;;;;;41.42;32.60;;;9.10;99.90;;;;;;5026327;28;20088;-56
2023/04/10 06:48:30;;;;;;;43.17;33.97;;;9.00;99.90;;;;;;5026215;28;20049;-55
2023/04/10 06:50:55;;;;;;;43.30;33.53;;;9.00;99.90;;;;;;5025344;28;20092;-57
2023/04/10 06:53:21;;;;;;;42.40;32.13;;;9.00;99.90;;;;;;5027225;28;20037;-57
2023/04/10 06:55:47;;;;;;;44.45;34.10;;;9.00;99.90;;;;;;5026220;28;20071;-56
2023/04/10 06:58:13;;;;;;;43.90;33.88;;;9.10;99.90;;;;;;5018374;28;20465;-54
2023/04/10 07:00:38;;;;;;;42.28;31.95;;;9.10;99.90;;;;;;5024033;28;20042;-58
2023/04/10 07:03:04;;;;;;;41.95;33.03;;;9.20;99.90;;;;;;5024094;28;20044;-54
2023/04/10 07:05:30;;;;;;;41.53;30.98;;;9.40;99.90;;;;;;5025373;28;20132;-52
2023/04/10 07:07:55;;;;;;;41.30;30.52;;;10.40;99.90;;;;;;5026994;28;20095;-59
2023/04/10 07:10:21;;;;;;;45.65;32.78;;;9.40;99.90;;;;;;5027026;28;20125;-59
2023/04/10 07:12:47;;;;;;;40.90;31.05;;;9.50;99.90;;;;;;5025882;28;20052;-56
2023/04/10 07:15:12;;;;;;;41.72;30.65;;;9.60;99.90;;;;;;5041737;28;20049;-58
2023/04/10 07:17:38;;;;;;;40.70;29.92;;;9.70;99.90;;;;;;5025702;28;20058;-59
2023/04/10 07:20:04;;;;;;;40.40;28.55;;;9.80;99.90;;;;;;5026757;28;20054;-57
2023/04/10 07:22:31;;;;;;;39.45;30.15;;;10.00;99.90;;;;;;5027118;28;20077;-59
2023/04/10 07:24:57;;;;;;;39.50;29.00;;;10.30;99.90;;;;;;5026733;28;20049;-57
2023/04/10 07:27:23;;;;;;;39.08;29.02;;;10.60;99.90;;;;;;5026478;28;20055;-50
2023/04/10 07:29:51;;;;;;;42.58;30.25;;;10.90;99.90;;;;;;5026965;28;20121;-57
2023/04/10 07:32:17;;;;;;;37.78;28.45;;;11.10;99.90;;;;;;5026138;28;20048;-58
2023/04/10 07:34:43;;;;;;;37.47;27.75;;;11.10;99.90;;;;;;5026377;28;20033;-58
2023/04/10 07:37:09;;;;;;;39.28;27.48;;;10.80;99.90;;;;;;5026329;28;20091;-59
2023/04/10 07:39:34;;;;;;;38.42;27.25;;;10.60;99.90;;;;;;5026638;28;20464;-53
2023/04/10 07:42:00;;;;;;;36.33;26.77;;;10.50;99.90;;;;;;5026203;28;20045;-58
2023/04/10 07:44:26;;;;;;;36.05;28.33;;;10.50;99.90;;;;;;5026259;28;20041;-57
2023/04/10 07:46:52;;;;;;;36.10;26.35;;;10.70;99.90;;;;;;5025579;28;20052;-49
2023/04/10 07:49:18;;;;;;;34.42;26.08;;;10.90;99.90;;;;;;5026272;28;20461;-57
2023/04/10 07:51:43;;;;;;;30.75;21.60;;;11.00;99.90;;;;;;5025985;28;20103;-56
2023/04/10 07:54:09;;;;;;;33.50;25.45;;;11.20;99.90;;;;;;5026693;28;20042;-57
2023/04/10 07:56:35;;;;;;;34.65;25.60;;;11.30;99.90;;;;;;5028634;28;20114;-56
2023/04/10 07:59:02;;;;;;;30.13;23.42;;;11.50;99.90;;;;;;5020952;28;20113;-54
2023/04/10 08:01:28;;;;;;;28.70;21.45;;;11.70;99.90;;;;;;5009326;28;20049;-58
2023/04/10 08:03:55;;;;;;;31.20;23.63;;;11.80;99.30;;;;;;5011542;28;20045;-57
2023/04/10 08:06:20;;;;;;;30.67;22.60;;;11.90;99.80;;;;;;5012240;28;20150;-57
2023/04/10 08:08:46;;;;;;;29.33;21.90;;;12.00;99.20;;;;;;5009487;28;20473;-56
2023/04/10 08:11:27;;;;;;;29.25;22.25;;;12.00;99.00;;;;;;5009849;28;20046;-56
2023/04/10 08:13:54;;;;;;;23.25;18.30;;;12.20;98.40;;;;;;5009359;28;20089;-59
2023/04/10 08:16:24;;;;;;;28.67;17.42;;;12.30;95.40;;;;;;5008470;28;20057;-57
2023/04/10 08:18:55;;;;;;;23.50;19.17;;;12.50;94.80;;;;;;5008075;28;20239;-58
2023/04/10 08:21:21;;;;;;;23.15;16.48;;;12.70;94.40;;;;;;5009411;28;20045;-55
2023/04/10 08:23:50;;;;;;;23.17;16.08;;;12.80;92.40;;;;;;5008975;28;20132;-59
2023/04/10 08:26:15;;;;;;;22.48;16.65;;;12.90;92.10;;;;;;5009189;28;20459;-60
2023/04/10 08:28:46;;;;;;;23.63;17.38;;;13.00;91.60;;;;;;5009004;28;20038;-60
2023/04/10 08:31:12;;;;;;;24.08;16.60;;;13.10;91.40;;;;;;5008869;28;20435;-60
2023/04/10 08:33:37;;;;;;;21.23;15.13;;;13.20;90.80;;;;;;5009744;28;20052;-59
2023/04/10 08:36:04;;;;;;;21.80;16.65;;;13.10;90.00;;;;;;5009156;28;20108;-59
2023/04/10 08:38:30;;;;;;;20.75;15.68;;;13.00;90.70;;;;;;5008933;28;20129;-58
2023/04/10 08:40:56;;;;;;;22.00;15.57;;;13.10;90.00;;;;;;5013422;28;20130;-60
2023/04/10 08:43:22;;;;;;;22.70;15.75;;;13.10;88.90;;;;;;5018800;28;20044;-55
2023/04/10 08:45:49;;;;;;;19.45;14.10;;;13.10;90.00;;;;;;5013978;28;20046;-51
2023/04/10 08:48:18;;;;;;;17.90;12.88;;;13.10;88.60;;;;;;5015621;28;20107;-59
2023/04/10 08:50:45;;;;;;;36.30;13.68;;;13.20;87.90;;;;;;5017582;28;20080;-58
2023/04/10 08:53:13;;;;;;;16.95;12.07;;;13.20;86.60;;;;;;5016975;28;20408;-58
2023/04/10 08:55:43;;;;;;;20.45;15.05;;;13.10;86.80;;;;;;5015230;28;20443;-61
2023/04/10 08:58:12;;;;;;;19.67;14.02;;;13.00;88.50;;;;;;5019766;28;20065;-50
2023/04/10 09:00:38;;;;;;;19.42;13.90;;;13.20;88.80;;;;;;5011553;28;20099;-60
2023/04/10 09:03:13;;;;;;;18.45;12.88;;;13.40;88.70;;;;;;5006841;28;20081;-58
2023/04/10 09:05:39;;;;;;;16.95;12.40;;;13.60;86.80;;;;;;5008685;28;20057;-59
2023/04/10 09:08:07;;;;;;;17.92;12.88;;;13.80;85.10;;;;;;5017246;28;20064;-57
2023/04/10 09:10:32;;;;;;;16.13;12.45;;;13.80;84.90;;;;;;5009523;28;20069;-59
2023/04/10 09:12:58;;;;;;;16.45;11.63;;;13.80;86.00;;;;;;5009292;28;20497;-56
2023/04/10 09:15:24;;;;;;;17.33;12.75;;;14.00;85.50;;;;;;5008545;28;20053;-59
2023/04/10 09:18:01;;;;;;;17.55;12.93;;;14.10;84.60;;;;;;5008050;28;20105;-60
2023/04/10 09:20:29;;;;;;;18.63;12.95;;;14.10;85.60;;;;;;5008673;28;20089;-59
2023/04/10 09:22:55;;;;;;;19.63;12.63;;;14.10;84.80;;;;;;5008014;28;20048;-60
2023/04/10 09:25:31;;;;;;;16.23;11.82;;;14.00;85.40;;;;;;5008532;28;20120;-59
2023/04/10 09:28:05;;;;;;;16.38;11.88;;;14.00;86.00;;;;;;5008541;28;20476;-60
2023/04/10 09:30:41;;;;;;;16.00;12.38;;;14.00;85.80;;;;;;5008613;28;20050;-59
2023/04/10 09:33:26;;;;;;;15.38;12.00;;;14.10;84.80;;;;;;5008278;28;20103;-57
2023/04/10 09:35:51;;;;;;;15.65;11.57;;;14.10;85.40;;;;;;5008035;28;20125;-54
2023/04/10 09:38:19;;;;;;;15.93;11.93;;;14.20;85.30;;;;;;5008284;28;20133;-60
2023/04/10 09:40:46;;;;;;;13.27;9.77;;;14.20;85.00;;;;;;5007741;28;20861;-59
2023/04/10 09:43:24;;;;;;;15.27;11.48;;;14.30;83.50;;;;;;5006865;28;20084;-59
2023/04/10 09:45:57;;;;;;;13.95;10.52;;;14.40;84.50;;;;;;5007192;28;20131;-59
2023/04/10 09:48:25;;;;;;;13.65;9.57;;;14.50;82.70;;;;;;5007984;28;20938;-60
2023/04/10 09:50:51;;;;;;;12.57;9.50;;;14.50;82.40;;;;;;5007734;28;20061;-59
2023/04/10 09:53:19;;;;;;;13.98;10.52;;;14.60;82.40;;;;;;5008384;28;20149;-59
2023/04/10 09:55:46;;;;;;;14.50;10.95;;;14.90;82.10;;;;;;5007047;28;20086;-60
2023/04/10 09:58:12;;;;;;;11.80;9.00;;;15.00;82.00;;;;;;5019610;28;20037;-58
2023/04/10 10:00:43;;;;;;;15.23;11.57;;;14.90;81.00;;;;;;5023895;28;20045;-57
2023/04/10 10:03:11;;;;;;;13.82;10.27;;;14.80;81.20;;;;;;5027261;28;20431;-58
2023/04/10 10:05:40;;;;;;;13.70;9.73;;;14.70;82.60;;;;;;5027646;28;20392;-59
2023/04/10 10:08:08;;;;;;;13.02;9.15;;;14.70;81.40;;;;;;5027783;28;20045;-60
2023/04/10 10:10:40;;;;;;;13.48;9.38;;;14.80;81.40;;;;;;5027628;28;20052;-52
2023/04/10 10:13:07;;;;;;;13.95;10.40;;;14.80;81.80;;;;;;5027758;28;20076;-59
2023/04/10 10:15:38;;;;;;;12.55;9.30;;;14.90;81.80;;;;;;5026358;28;20089;-53
2023/04/10 10:18:24;;;;;;;11.80;8.85;;;15.00;81.80;;;;;;5027058;28;20050;-58
2023/04/10 10:20:50;;;;;;;12.48;9.18;;;15.20;81.30;;;;;;5027341;28;20469;-55
2023/04/10 10:23:18;;;;;;;12.10;9.05;;;15.20;81.40;;;;;;5026787;28;20139;-61
2023/04/10 10:25:45;;;;;;;11.43;8.63;;;15.30;81.00;;;;;;5026847;28;20045;-56
2023/04/10 10:28:13;;;;;;;10.98;8.35;;;15.40;80.50;;;;;;5027390;28;20089;-57
2023/04/10 10:30:39;;;;;;;11.60;8.75;;;15.40;80.60;;;;;;5026308;28;20128;-55
2023/04/10 10:33:06;;;;;;;10.82;8.43;;;15.60;81.00;;;;;;5027970;28;20120;-59
2023/04/10 10:35:34;;;;;;;11.82;8.63;;;15.80;80.80;;;;;;5027470;28;20107;-59
2023/04/10 10:38:02;;;;;;;11.13;8.38;;;15.90;79.50;;;;;;5026799;28;20045;-58
2023/04/10 10:40:38;;;;;;;10.73;8.70;;;15.90;79.20;;;;;;5027551;28;20061;-59
2023/04/10 10:43:07;;;;;;;12.02;8.65;;;15.90;79.80;;;;;;5027422;28;20056;-59
2023/04/10 10:46:02;;;;;;;10.10;7.80;;;15.90;80.00;;;;;;5026181;28;20045;-52
2023/04/10 10:48:27;;;;;;;10.00;7.95;;;16.00;79.00;;;;;;5026641;28;20064;-56
2023/04/10 10:51:00;;;;;;;9.85;7.25;;;15.90;78.90;;;;;;5027032;28;20037;-57
2023/04/10 10:53:39;;;;;;;11.48;8.43;;;15.80;78.90;;;;;;5027037;28;20496;-56
2023/04/10 10:56:17;;;;;;;11.68;8.80;;;15.90;79.40;;;;;;5026997;28;20038;-57
2023/04/10 10:58:47;;;;;;;10.00;6.75;;;16.00;78.60;;;;;;5019430;28;20523;-58
2023/04/10 11:01:13;;;;;;;12.27;8.45;;;16.10;78.30;;;;;;5006277;28;20045;-59
2023/04/10 11:03:38;;;;;;;9.63;6.47;;;16.00;78.00;;;;;;5007036;28;20088;-55
2023/04/10 11:06:08;;;;;;;12.35;8.35;;;16.00;78.60;;;;;;5006439;28;20077;-59
2023/04/10 11:08:39;;;;;;;10.50;7.72;;;16.00;78.80;;;;;;5007295;28;20369;-57
2023/04/10 11:11:14;;;;;;;9.13;6.75;;;16.00;78.80;;;;;;5007247;28;20651;-59
2023/04/10 11:14:01;;;;;;;8.70;6.72;;;16.10;78.10;;;;;;5007231;28;20048;-55
2023/04/10 11:16:34;;;;;;;9.13;6.43;;;15.90;78.40;;;;;;4998482;28;20069;-57
2023/04/10 11:19:00;;;;;;;9.80;6.43;;;15.90;78.50;;;;;;5006749;28;20081;-55
2023/04/10 11:21:27;;;;;;;8.43;6.32;;;15.90;78.00;;;;;;5006456;28;20556;-59
2023/04/10 11:23:53;;;;;;;9.68;6.82;;;15.90;77.60;;;;;;5007060;28;20042;-59
2023/04/10 11:26:38;;;;;;;11.05;7.65;;;15.80;77.50;;;;;;5006913;28;20125;-51
2023/04/10 11:29:16;;;;;;;10.05;6.82;;;15.60;78.80;;;;;;5007251;28;20417;-59
2023/04/10 11:31:53;;;;;;;9.25;6.97;;;15.60;78.50;;;;;;5009874;28;20085;-59
2023/04/10 11:34:19;;;;;;;9.32;7.13;;;15.70;79.90;;;;;;5011116;28;20420;-58
2023/04/10 11:36:46;;;;;;;8.80;6.00;;;15.90;78.20;;;;;;5010808;28;20504;-53
2023/04/10 11:39:17;;;;;;;7.70;6.03;;;15.80;78.30;;;;;;5010519;28;20444;-56
2023/04/10 11:41:44;;;;;;;8.25;5.95;;;15.90;78.20;;;;;;5010523;28;20436;-58
2023/04/10 11:44:34;;;;;;;7.78;5.60;;;15.90;78.40;;;;;;5010832;28;20547;-50
2023/04/10 11:46:59;;;;;;;9.63;6.15;;;16.00;78.20;;;;;;5009932;28;20076;-56
2023/04/10 11:49:28;;;;;;;7.32;4.97;;;16.10;78.20;;;;;;5009268;28;20481;-58
2023/04/10 11:51:54;;;;;;;8.82;6.63;;;16.20;77.60;;;;;;5010480;28;20049;-58
2023/04/10 11:54:29;;;;;;;8.75;6.10;;;16.10;78.10;;;;;;5010321;28;20053;-58
2023/04/10 11:57:08;;;;;;;8.60;6.53;;;16.20;77.90;;;;;;5012482;28;20148;-56
2023/04/10 11:59:34;;;;;;;8.02;5.38;;;16.20;78.50;;;;;;5017336;28;20046;-58
2023/04/10 12:02:15;;;;;;;7.95;5.05;;;16.20;78.00;;;;;;5009792;28;20141;-60
2023/04/10 12:04:42;;;;;;;8.15;5.38;;;16.20;78.10;;;;;;5010212;28;20041;-59
2023/04/10 12:07:08;;;;;;;6.53;4.63;;;16.30;77.70;;;;;;5010268;28;20125;-55
2023/04/10 12:09:34;;;;;;;7.35;5.35;;;16.30;77.10;;;;;;5009695;28;20145;-59
2023/04/10 12:12:05;;;;;;;7.00;4.93;;;16.20;77.20;;;;;;5024323;28;20135;-59
2023/04/10 12:14:33;;;;;;;6.60;4.88;;;16.20;77.60;;;;;;5009505;28;20080;-59
2023/04/10 12:17:00;;;;;;;7.80;4.55;;;16.20;77.70;;;;;;5011541;28;20092;-57
2023/04/10 12:19:26;;;;;;;4.78;4.07;;;16.20;76.70;;;;;;5018054;28;20069;-56
2023/04/10 12:21:52;;;;;;;6.32;4.90;;;16.20;76.80;;;;;;5021260;28;20069;-58
2023/04/10 12:24:40;;;;;;;7.00;3.85;;;16.20;76.80;;;;;;5018683;28;20041;-58
2023/04/10 12:27:07;;;;;;;5.47;3.97;;;16.20;77.10;;;;;;5017464;28;20053;-57
2023/04/10 12:29:33;;;;;;;6.18;4.53;;;16.20;77.50;;;;;;5017651;28;20402;-49
2023/04/10 12:32:09;;;;;;;5.70;3.88;;;16.30;77.50;;;;;;5020198;28;20052;-58
2023/04/10 12:34:36;;;;;;;5.22;3.38;;;16.40;77.10;;;;;;5029560;28;20033;-52
2023/04/10 12:37:01;;;;;;;6.50;3.92;;;16.40;76.90;;;;;;5019549;28;20055;-59
2023/04/10 12:39:28;;;;;;;5.53;3.83;;;16.60;76.10;;;;;;5026997;28;20182;-54